Terminal Aerodrome Forecast
Issued by NWS

Home | Current Version | Previous Version | Text Only | Print | Product List | Glossary On
Versions: 1 2 3 4 5 6 7 8 9 10 11 12 13 14
146
FTUS43 KMPX 210520
TAFRNH
TAF
KRNH 210520Z 2106/2206 28012KT 6SM BR OVC006
     FM210900 23003KT 4SM BR SCT015
      TEMPO 2109/2113 1SM BR BKN008
     FM211500 22009KT P6SM SCT150
     FM220000 22006KT P6SM SCT250=

USA.gov is the U.S. government's official web portal to all federal, state and local government web resources and services.